Time;durP1;ratioP1;P1;durP2;ratioP2;P2;SDS_P1;SDS_P2;PMS_P1;PMS_P2;Temp;Humidity;BMP_temperature;BMP_pressure;BME280_temperature;BME280_humidity;BME280_pressure;Samples;Min_cycle;Max_cycle;Signal;HPM_P1;HPM_P2
2021/11/06 00:00:07;;;;;;;5.55;3.47;;;;;;;24.20;45.04;95447.53;5044569;28;20029;-63
2021/11/06 00:02:33;;;;;;;6.00;3.67;;;;;;;24.12;44.82;95449.28;5044407;28;20036;-62
2021/11/06 00:04:59;;;;;;;5.88;3.53;;;;;;;24.15;44.97;95456.44;5026469;28;20057;-62
2021/11/06 00:07:24;;;;;;;7.20;3.63;;;;;;;24.14;44.81;95444.06;5044278;28;20021;-62
2021/11/06 00:09:50;;;;;;;5.38;3.28;;;;;;;24.13;45.17;95453.50;5044547;28;20028;-62
2021/11/06 00:12:16;;;;;;;6.40;3.95;;;;;;;24.10;45.17;95443.59;5044709;28;20040;-63
2021/11/06 00:14:41;;;;;;;5.90;3.80;;;;;;;24.10;44.98;95453.78;5044030;28;20020;-63
2021/11/06 00:17:07;;;;;;;7.97;3.65;;;;;;;24.05;45.32;95447.09;5043994;28;20604;-66
2021/11/06 00:19:32;;;;;;;7.07;3.85;;;;;;;24.06;45.18;95453.28;5043909;28;20028;-62
2021/11/06 00:21:58;;;;;;;6.68;3.80;;;;;;;24.05;45.37;95458.00;5044018;28;20048;-62
2021/11/06 00:24:23;;;;;;;5.75;3.78;;;;;;;24.03;45.43;95460.47;5026243;28;20088;-62
2021/11/06 00:26:51;;;;;;;6.75;3.53;;;;;;;24.01;45.27;95468.44;5044167;28;20025;-62
2021/11/06 00:29:17;;;;;;;6.53;3.80;;;;;;;24.01;44.91;95462.25;5046274;28;20028;-63
2021/11/06 00:31:43;;;;;;;6.60;3.72;;;;;;;23.97;45.31;95467.94;5048327;28;20025;-62
2021/11/06 00:34:08;;;;;;;5.78;3.65;;;;;;;23.95;45.48;95470.44;5048197;28;20033;-62
2021/11/06 00:36:34;;;;;;;5.72;3.90;;;;;;;23.96;45.36;95477.38;5030391;28;20786;-62
2021/11/06 00:38:59;;;;;;;6.38;3.60;;;;;;;23.94;45.26;95468.94;5048087;28;20818;-62
2021/11/06 00:41:25;;;;;;;6.50;3.67;;;;;;;23.95;45.23;95475.91;5030093;28;20035;-62
2021/11/06 00:43:50;;;;;;;6.47;3.50;;;;;;;23.92;45.59;95482.34;5047982;28;20056;-62
2021/11/06 00:46:15;;;;;;;5.93;3.75;;;;;;;23.92;45.69;95482.34;5030217;28;20059;-62
2021/11/06 00:48:41;;;;;;;6.35;3.85;;;;;;;23.90;45.50;95482.13;5047974;28;20025;-62
2021/11/06 00:51:07;;;;;;;6.32;3.50;;;;;;;23.87;45.49;95469.47;5048125;28;20025;-62
2021/11/06 00:53:32;;;;;;;7.63;4.20;;;;;;;23.89;45.53;95472.44;5029825;28;20036;-62
2021/11/06 00:55:58;;;;;;;5.43;3.53;;;;;;;23.87;45.69;95474.94;5047707;28;20542;-62
2021/11/06 00:58:23;;;;;;;5.15;3.53;;;;;;;23.87;45.37;95474.94;5047524;28;20032;-62
2021/11/06 01:03:24;;;;;;;5.28;3.25;;;;;;;23.83;45.54;95472.97;5054258;22;20057;-62
2021/11/06 01:05:49;;;;;;;5.82;3.78;;;;;;;23.83;45.48;95487.34;5027769;28;20068;-62
2021/11/06 01:08:15;;;;;;;5.18;3.22;;;;;;;23.81;45.66;95480.91;5028032;28;20033;-62
2021/11/06 01:10:43;;;;;;;5.63;3.60;;;;;;;23.80;45.75;95474.72;5027085;28;20022;-63
2021/11/06 01:13:08;;;;;;;6.00;3.72;;;;;;;23.80;45.64;95479.44;5026657;28;20025;-62
2021/11/06 01:15:34;;;;;;;5.50;3.53;;;;;;;23.81;45.66;95475.44;5026905;28;20038;-61
2021/11/06 01:17:59;;;;;;;7.63;3.85;;;;;;;23.80;45.46;95488.34;5027683;28;20802;-62
2021/11/06 01:20:25;;;;;;;7.00;3.85;;;;;;;23.79;45.71;95499.75;5026748;28;20029;-62
2021/11/06 01:22:50;;;;;;;5.63;3.47;;;;;;;23.78;45.54;95503.72;5026205;28;20094;-62
2021/11/06 01:25:16;;;;;;;6.32;3.95;;;;;;;23.78;45.82;95503.72;5027833;28;20060;-62
2021/11/06 01:27:42;;;;;;;5.40;3.47;;;;;;;23.75;46.09;95493.81;5027596;28;20392;-62
2021/11/06 01:30:07;;;;;;;4.72;3.33;;;;;;;23.76;45.53;95495.31;5027602;28;20063;-63
2021/11/06 01:32:33;;;;;;;4.90;3.70;;;;;;;23.73;46.07;95493.56;5027170;28;20123;-62
2021/11/06 01:34:58;;;;;;;5.65;3.70;;;;;;;23.73;46.00;95504.47;5027345;28;20030;-62
2021/11/06 01:37:24;;;;;;;5.68;3.58;;;;;;;23.74;45.82;95503.25;5027378;28;20064;-62
2021/11/06 01:39:49;;;;;;;6.97;3.58;;;;;;;23.71;45.86;95504.97;5024814;28;20061;-63
2021/11/06 01:42:15;;;;;;;4.85;3.47;;;;;;;23.72;45.52;95505.72;5027108;28;20470;-62
2021/11/06 01:44:40;;;;;;;8.45;4.00;;;;;;;23.68;45.66;95505.25;5027180;28;20483;-63
2021/11/06 01:47:09;;;;;;;5.03;3.38;;;;;;;23.70;45.59;95513.66;5025771;28;20495;-62
2021/11/06 01:49:35;;;;;;;5.47;3.75;;;;;;;23.70;45.67;95508.22;5027178;28;20041;-62
2021/11/06 01:52:00;;;;;;;5.90;3.80;;;;;;;23.69;45.75;95512.16;5025841;28;20029;-62
2021/11/06 01:54:26;;;;;;;5.28;3.40;;;;;;;23.65;46.21;95506.25;5027114;28;20030;-62
2021/11/06 01:56:53;;;;;;;5.32;3.40;;;;;;;23.67;45.81;95514.66;5027005;28;20106;-63
2021/11/06 01:59:19;;;;;;;6.53;3.45;;;;;;;23.66;45.86;95510.44;5025728;28;20587;-62
2021/11/06 02:01:45;;;;;;;5.45;3.40;;;;;;;23.66;45.80;95502.25;5025662;28;20045;-62
2021/11/06 02:04:10;;;;;;;5.93;3.63;;;;;;;23.65;46.21;95495.34;5027033;28;20530;-62
2021/11/06 02:06:36;;;;;;;6.40;3.97;;;;;;;23.64;45.80;95504.75;5025950;28;20025;-62
2021/11/06 02:09:01;;;;;;;6.90;3.90;;;;;;;23.63;45.74;95508.69;5024974;28;20037;-62
2021/11/06 02:11:28;;;;;;;5.22;3.53;;;;;;;23.64;46.15;95510.19;5024899;28;20025;-62
2021/11/06 02:13:53;;;;;;;5.22;3.40;;;;;;;23.63;46.21;95516.84;5026954;28;20621;-62
2021/11/06 02:16:18;;;;;;;6.15;3.40;;;;;;;23.61;45.93;95516.63;5026705;28;20025;-63
2021/11/06 02:18:46;;;;;;;7.50;3.50;;;;;;;23.62;46.24;95512.66;5026844;28;20029;-62
2021/11/06 02:21:12;;;;;;;5.72;3.42;;;;;;;23.61;45.91;95506.44;5025624;28;20021;-62
2021/11/06 02:23:39;;;;;;;6.60;3.58;;;;;;;23.57;45.91;95511.44;5026294;28;20025;-62
2021/11/06 02:26:06;;;;;;;4.95;3.80;;;;;;;23.61;45.81;95541.16;5025427;28;20064;-63
2021/11/06 02:28:32;;;;;;;5.53;3.45;;;;;;;23.60;45.94;95531.50;5025658;28;20045;-63
2021/11/06 02:30:57;;;;;;;6.30;3.38;;;;;;;23.59;46.23;95532.75;5026456;28;20032;-63
2021/11/06 02:33:23;;;;;;;5.15;3.63;;;;;;;23.55;46.08;95535.72;5026636;28;20028;-63
2021/11/06 02:35:48;;;;;;;6.25;4.22;;;;;;;23.56;45.86;95542.66;5026518;28;20025;-61
2021/11/06 02:38:14;;;;;;;5.88;3.72;;;;;;;23.56;46.00;95541.91;5026187;28;20038;-62
2021/11/06 02:40:39;;;;;;;6.05;3.50;;;;;;;23.56;46.09;95563.72;5026438;28;20028;-61
2021/11/06 02:43:05;;;;;;;6.38;3.70;;;;;;;23.57;45.85;95559.75;5026256;28;20056;-62
2021/11/06 02:45:31;;;;;;;6.32;3.45;;;;;;;23.56;46.47;95575.38;5026516;28;20028;-62
2021/11/06 02:47:56;;;;;;;5.53;3.70;;;;;;;23.58;46.06;95555.78;5024776;28;20412;-62
2021/11/06 02:50:21;;;;;;;5.88;3.50;;;;;;;23.56;46.21;95558.28;5026095;28;20025;-62
2021/11/06 02:52:47;;;;;;;5.28;3.60;;;;;;;23.55;46.45;95551.34;5025835;28;20021;-62
2021/11/06 02:55:12;;;;;;;6.15;3.53;;;;;;;23.51;46.15;95567.94;5024820;28;20028;-62
2021/11/06 02:57:38;;;;;;;5.22;3.63;;;;;;;23.54;46.32;95558.00;5024833;28;20499;-62
2021/11/06 03:00:07;;;;;;;6.13;3.53;;;;;;;23.52;46.34;95569.41;5024927;28;20798;-62
2021/11/06 03:02:33;;;;;;;5.60;3.63;;;;;;;23.53;46.37;95572.91;5025687;28;20053;-62
2021/11/06 03:05:03;;;;;;;5.68;3.65;;;;;;;23.53;46.40;95575.63;5026064;28;20033;-61
2021/11/06 03:07:29;;;;;;;5.85;3.70;;;;;;;23.52;46.57;95568.69;5025929;28;20040;-62
2021/11/06 03:09:54;;;;;;;6.28;3.60;;;;;;;23.52;46.46;95579.59;5025211;28;20041;-63
2021/11/06 03:12:20;;;;;;;5.38;3.50;;;;;;;23.52;46.39;95557.78;5024547;28;20033;-62
2021/11/06 03:14:46;;;;;;;6.97;4.03;;;;;;;23.48;46.12;95573.63;5025783;28;20029;-62
2021/11/06 03:17:12;;;;;;;5.85;3.42;;;;;;;23.51;46.48;95583.53;5024676;28;20040;-63
2021/11/06 03:19:37;;;;;;;6.25;3.50;;;;;;;23.50;46.48;95598.44;5025551;28;20025;-62
2021/11/06 03:22:04;;;;;;;5.95;3.50;;;;;;;23.48;46.39;95585.28;5025896;28;20021;-62
2021/11/06 03:24:29;;;;;;;5.43;3.45;;;;;;;23.50;46.11;95582.06;5025945;28;20045;-63
2021/11/06 03:26:55;;;;;;;6.85;3.58;;;;;;;23.48;46.51;95584.53;5025942;28;20034;-62
2021/11/06 03:29:20;;;;;;;5.10;3.22;;;;;;;23.48;46.09;95592.72;5025560;28;20036;-63
2021/11/06 03:31:46;;;;;;;5.57;3.60;;;;;;;23.47;46.04;95583.06;5025128;28;20056;-62
2021/11/06 03:34:11;;;;;;;5.13;3.40;;;;;;;23.47;46.51;95589.25;5025222;28;20100;-62
2021/11/06 03:36:37;;;;;;;6.80;3.60;;;;;;;23.49;46.40;95591.47;5023866;28;20029;-63
2021/11/06 03:39:03;;;;;;;5.85;3.30;;;;;;;23.49;46.54;95591.47;5025286;28;20426;-62
2021/11/06 03:41:28;;;;;;;6.18;3.75;;;;;;;23.47;46.21;95599.41;5023480;28;20028;-62
2021/11/06 03:43:54;;;;;;;6.55;3.70;;;;;;;23.49;46.26;95599.66;5023719;28;20029;-63
2021/11/06 03:46:19;;;;;;;7.28;3.45;;;;;;;23.47;46.22;95593.97;5024094;28;20025;-62
2021/11/06 03:48:45;;;;;;;5.65;3.45;;;;;;;23.46;46.11;95597.94;5025178;28;20056;-62
2021/11/06 03:51:10;;;;;;;5.05;3.15;;;;;;;23.47;46.35;95594.69;5024998;28;20411;-62
2021/11/06 03:53:35;;;;;;;5.35;3.40;;;;;;;23.46;46.31;95608.81;5023337;28;20025;-62
2021/11/06 03:56:02;;;;;;;6.68;3.88;;;;;;;23.45;46.17;95607.34;5025063;28;20037;-62
2021/11/06 03:58:28;;;;;;;7.40;3.40;;;;;;;23.46;46.42;95625.19;5023623;28;20539;-62
2021/11/06 04:00:53;;;;;;;5.78;3.35;;;;;;;23.45;46.17;95623.69;5024757;28;20107;-62
2021/11/06 04:03:19;;;;;;;4.40;3.40;;;;;;;23.44;46.44;95616.75;5023830;28;20095;-62
2021/11/06 04:05:45;;;;;;;5.97;3.40;;;;;;;23.44;46.46;95605.88;5025278;28;20029;-62
2021/11/06 04:08:10;;;;;;;4.70;3.10;;;;;;;23.44;46.71;95611.31;5024849;28;20026;-63
2021/11/06 04:10:35;;;;;;;5.55;4.10;;;;;;;23.44;46.45;95605.88;5023273;28;20048;-62
2021/11/06 04:13:01;;;;;;;5.45;3.38;;;;;;;23.42;46.56;95598.19;5024609;28;20033;-62
2021/11/06 04:15:26;;;;;;;7.78;3.85;;;;;;;23.42;46.04;95602.88;5024889;28;20473;-62
2021/11/06 04:17:52;;;;;;;6.68;3.97;;;;;;;23.38;46.62;95608.56;5025023;28;20034;-63
2021/11/06 04:20:17;;;;;;;6.55;3.67;;;;;;;23.42;46.34;95611.03;5024712;28;20041;-62
2021/11/06 04:22:43;;;;;;;5.65;3.42;;;;;;;23.41;45.98;95595.94;5024509;28;20398;-62
2021/11/06 04:25:08;;;;;;;5.93;3.60;;;;;;;23.45;46.27;95590.97;5023123;28;20025;-63
2021/11/06 04:27:34;;;;;;;6.00;3.95;;;;;;;23.50;46.00;95587.53;5024613;28;20025;-63
2021/11/06 04:30:00;;;;;;;6.13;3.70;;;;;;;23.49;46.61;95591.47;5024751;28;20087;-63
2021/11/06 04:32:26;;;;;;;4.75;3.47;;;;;;;23.54;46.13;95609.81;5024088;28;20039;-64
2021/11/06 04:34:51;;;;;;;4.97;3.45;;;;;;;23.57;45.88;95608.81;5024187;28;20021;-64
2021/11/06 04:37:16;;;;;;;5.65;3.58;;;;;;;23.61;46.08;95637.31;5024702;28;20033;-64
2021/11/06 04:39:42;;;;;;;5.82;3.40;;;;;;;23.64;45.69;95619.28;5024822;28;20025;-64
2021/11/06 04:42:08;;;;;;;4.78;3.58;;;;;;;23.65;46.01;95637.88;5023988;28;20033;-63
2021/11/06 04:44:33;;;;;;;7.30;3.38;;;;;;;23.67;46.16;95631.91;5024404;28;20488;-67
2021/11/06 04:46:59;;;;;;;5.35;3.28;;;;;;;23.69;45.57;95634.88;5025191;28;20041;-69
2021/11/06 04:49:24;;;;;;;5.35;3.40;;;;;;;23.67;45.74;95629.19;5024610;28;20026;-68
2021/11/06 04:51:50;;;;;;;5.80;3.33;;;;;;;23.72;45.72;95639.34;5040156;28;20415;-68
2021/11/06 04:54:15;;;;;;;5.97;3.72;;;;;;;23.75;45.87;95649.25;5024387;28;20072;-68
2021/11/06 04:56:41;;;;;;;5.95;3.42;;;;;;;23.77;45.68;95646.78;5024506;28;20025;-67
2021/11/06 04:59:06;;;;;;;5.45;3.15;;;;;;;23.80;45.41;95643.06;5024044;28;20037;-68
2021/11/06 05:01:32;;;;;;;5.35;3.40;;;;;;;23.83;45.79;95642.09;5022739;28;20103;-68
2021/11/06 05:03:57;;;;;;;4.72;3.42;;;;;;;23.85;45.82;95639.59;5009715;28;20069;-68
2021/11/06 05:06:23;;;;;;;8.20;3.42;;;;;;;23.86;45.61;95668.38;5004902;28;20057;-68
2021/11/06 05:08:48;;;;;;;5.93;3.38;;;;;;;23.86;45.44;95667.09;5003200;28;20507;-65
2021/11/06 05:11:14;;;;;;;6.60;3.30;;;;;;;23.88;45.54;95678.28;5004568;28;20034;-66
2021/11/06 05:13:39;;;;;;;4.90;3.45;;;;;;;23.90;45.31;95664.88;5003899;28;20029;-63
2021/11/06 05:16:05;;;;;;;6.22;3.28;;;;;;;23.91;45.30;95676.53;5007320;28;20032;-67
2021/11/06 05:18:30;;;;;;;5.93;3.42;;;;;;;23.90;45.41;95669.56;5007898;28;20029;-67
2021/11/06 05:20:56;;;;;;;5.68;3.60;;;;;;;23.92;45.57;95684.22;5007815;28;20022;-66
2021/11/06 05:23:21;;;;;;;5.45;3.22;;;;;;;23.95;45.31;95691.41;5007773;28;20037;-66
2021/11/06 05:25:46;;;;;;;6.60;3.20;;;;;;;23.95;45.58;95682.50;5007612;28;20056;-65
2021/11/06 05:28:13;;;;;;;5.05;3.17;;;;;;;23.96;45.71;95687.44;5008096;28;20029;-67
2021/11/06 05:30:39;;;;;;;4.97;3.28;;;;;;;23.97;45.19;95686.19;5008100;28;20084;-66
2021/11/06 05:33:04;;;;;;;7.13;3.65;;;;;;;23.96;45.37;95684.72;5006892;28;20492;-66
2021/11/06 05:35:30;;;;;;;5.35;3.30;;;;;;;23.95;45.62;95691.41;5007548;28;20028;-67
2021/11/06 05:37:55;;;;;;;5.88;3.22;;;;;;;24.00;45.18;95695.38;5007564;28;20026;-66
2021/11/06 05:40:21;;;;;;;4.72;2.92;;;;;;;23.99;45.19;95699.34;5006033;28;20026;-67
2021/11/06 05:42:46;;;;;;;4.68;3.30;;;;;;;24.00;45.46;95698.84;5007194;28;20038;-65
2021/11/06 05:45:12;;;;;;;4.53;3.38;;;;;;;24.01;45.08;95697.59;5007676;28;20018;-66
2021/11/06 05:47:37;;;;;;;4.25;2.97;;;;;;;24.03;45.19;95700.56;5006252;28;20033;-66
2021/11/06 05:50:07;;;;;;;5.50;3.20;;;;;;;24.05;45.00;95711.75;5007076;28;20022;-66
2021/11/06 05:52:32;;;;;;;5.00;3.45;;;;;;;24.03;44.84;95716.94;5007057;28;20040;-66
2021/11/06 05:54:58;;;;;;;7.00;3.45;;;;;;;24.04;45.44;95728.63;5006902;28;20025;-67
2021/11/06 05:57:23;;;;;;;4.70;3.03;;;;;;;24.09;45.16;95730.59;5007044;28;20029;-67
2021/11/06 05:59:49;;;;;;;5.43;2.92;;;;;;;24.10;44.86;95741.03;5007085;28;20088;-67
2021/11/06 06:02:14;;;;;;;5.65;3.30;;;;;;;24.09;44.89;95739.53;5005740;28;20033;-66
2021/11/06 06:04:39;;;;;;;5.47;2.90;;;;;;;24.13;44.81;95748.22;5046922;28;20108;-63
2021/11/06 06:07:05;;;;;;;5.38;3.30;;;;;;;24.14;44.81;95752.44;5046606;28;20029;-63
2021/11/06 06:09:30;;;;;;;5.60;3.40;;;;;;;24.16;45.18;95741.75;5047209;28;20029;-63
2021/11/06 06:11:56;;;;;;;5.25;3.33;;;;;;;24.17;44.82;95743.25;5046903;28;20104;-63
2021/11/06 06:14:22;;;;;;;4.68;3.03;;;;;;;24.21;44.66;95754.66;5047038;28;20477;-63
2021/11/06 06:16:47;;;;;;;5.10;2.92;;;;;;;24.26;44.83;95751.19;5046569;28;20024;-62
2021/11/06 06:19:13;;;;;;;4.80;3.17;;;;;;;24.33;44.92;95755.44;5047054;28;20029;-63
2021/11/06 06:21:38;;;;;;;6.57;3.70;;;;;;;24.40;44.78;95766.59;5046118;28;20515;-63
2021/11/06 06:24:04;;;;;;;4.20;3.10;;;;;;;24.49;44.84;95769.81;5046030;28;20033;-65
2021/11/06 06:26:29;;;;;;;5.28;3.13;;;;;;;24.65;45.10;95766.31;5045981;28;20538;-63
2021/11/06 06:28:55;;;;;;;7.43;3.13;;;;;;;24.76;44.85;95765.56;5043776;28;20032;-63
2021/11/06 06:31:20;;;;;;;4.68;2.75;;;;;;;24.85;44.68;95761.28;5045721;28;20032;-65
2021/11/06 06:33:46;;;;;;;5.95;3.10;;;;;;;24.92;44.64;95779.91;5046415;28;20029;-66
2021/11/06 06:36:11;;;;;;;5.47;2.50;;;;;;;24.99;44.61;95773.97;5028004;28;20063;-64
2021/11/06 06:38:37;;;;;;;4.53;2.70;;;;;;;25.16;44.33;95777.38;5028369;28;20029;-63
2021/11/06 06:41:04;;;;;;;4.32;2.83;;;;;;;25.28;43.85;95784.31;5046539;28;20049;-65
2021/11/06 06:43:29;;;;;;;6.10;3.20;;;;;;;25.40;44.00;95785.75;5028054;28;20485;-65
2021/11/06 06:45:55;;;;;;;7.65;3.00;;;;;;;25.48;43.55;95776.50;5027865;28;20029;-65
2021/11/06 06:48:20;;;;;;;5.60;3.05;;;;;;;25.62;43.47;95780.16;5027969;28;20423;-63
2021/11/06 06:50:47;;;;;;;5.07;3.20;;;;;;;25.68;43.16;95789.88;5011010;28;20051;-62
2021/11/06 06:53:13;;;;;;;5.57;2.90;;;;;;;25.77;42.89;95797.78;5027544;28;20029;-63
2021/11/06 06:55:39;;;;;;;5.10;3.10;;;;;;;25.83;42.50;95807.44;5045201;28;20033;-63
2021/11/06 06:58:05;;;;;;;6.05;3.25;;;;;;;25.92;42.44;95812.59;5027175;28;20021;-64
2021/11/06 07:00:30;;;;;;;6.07;2.92;;;;;;;25.94;42.14;95812.84;5045139;28;20096;-65
2021/11/06 07:02:55;;;;;;;5.25;2.90;;;;;;;26.09;42.14;95807.75;5044863;28;20774;-66
2021/11/06 07:05:21;;;;;;;8.90;3.15;;;;;;;26.20;41.93;95821.38;5044645;28;20033;-67
2021/11/06 07:07:47;;;;;;;10.32;3.47;;;;;;;26.24;41.59;95799.22;5045062;28;20033;-67
2021/11/06 07:10:12;;;;;;;6.78;3.63;;;;;;;26.26;41.85;95794.69;5044714;28;20028;-68
2021/11/06 07:12:40;;;;;;;9.77;2.88;;;;;;;26.37;41.55;95808.34;5044642;28;20051;-68
2021/11/06 07:15:06;;;;;;;6.90;3.28;;;;;;;26.39;41.27;95803.84;5027083;28;20021;-68
2021/11/06 07:17:31;;;;;;;6.63;3.20;;;;;;;26.45;41.39;95803.78;5044744;28;20028;-67
2021/11/06 07:19:57;;;;;;;14.27;3.53;;;;;;;26.56;41.00;95790.00;5044444;28;20013;-68
2021/11/06 07:22:22;;;;;;;6.05;3.33;;;;;;;26.61;40.75;95802.94;5043179;28;20021;-66
2021/11/06 07:24:48;;;;;;;8.38;3.78;;;;;;;26.59;41.03;95799.94;5044257;28;20028;-69
2021/11/06 07:27:13;;;;;;;5.90;3.70;;;;;;;26.68;40.74;95797.63;5045139;28;20410;-68
2021/11/06 07:29:39;;;;;;;7.40;3.40;;;;;;;26.69;40.73;95798.38;5044844;28;20471;-70
2021/11/06 07:32:04;;;;;;;5.80;3.38;;;;;;;26.66;40.60;95788.41;5044659;28;20025;-70
2021/11/06 07:34:30;;;;;;;7.95;3.63;;;;;;;26.79;40.55;95797.50;5044241;28;20032;-69
2021/11/06 07:36:55;;;;;;;6.18;3.40;;;;;;;26.87;40.49;95799.16;5044389;28;20494;-66
2021/11/06 07:39:21;;;;;;;6.82;3.67;;;;;;;26.83;40.10;95804.19;5008595;28;20016;-69
2021/11/06 07:41:47;;;;;;;7.30;3.47;;;;;;;26.88;40.39;95797.91;5044497;28;20050;-69
2021/11/06 07:44:12;;;;;;;6.22;3.58;;;;;;;26.91;40.04;95805.13;5044503;28;20662;-69
2021/11/06 07:46:40;;;;;;;6.95;3.60;;;;;;;26.95;39.93;95805.59;5044473;28;20025;-69
2021/11/06 07:49:06;;;;;;;7.57;3.58;;;;;;;26.94;40.11;95815.06;5026517;28;20220;-69
2021/11/06 07:51:31;;;;;;;5.22;3.13;;;;;;;27.01;39.64;95820.00;5044585;28;20032;-70
2021/11/06 07:53:57;;;;;;;5.47;3.33;;;;;;;27.01;39.96;95814.53;5044326;28;20434;-70
2021/11/06 07:56:22;;;;;;;4.75;2.97;;;;;;;27.08;39.76;95813.94;5026483;28;20765;-69
2021/11/06 07:58:48;;;;;;;6.15;3.63;;;;;;;27.04;39.68;95827.19;5044573;28;20020;-71
2021/11/06 08:01:13;;;;;;;7.18;3.70;;;;;;;27.12;39.35;95819.88;5044050;28;20246;-69
2021/11/06 08:03:39;;;;;;;6.55;3.35;;;;;;;27.12;39.73;95819.88;5026364;28;20060;-70
2021/11/06 08:06:05;;;;;;;6.07;3.33;;;;;;;27.16;39.80;95814.09;5044392;28;20094;-67
2021/11/06 08:08:30;;;;;;;5.88;3.58;;;;;;;27.18;39.48;95823.31;5044853;28;20083;-67
2021/11/06 08:10:56;;;;;;;7.05;3.58;;;;;;;27.13;39.42;95821.38;5044458;28;20479;-67
2021/11/06 08:13:22;;;;;;;6.28;3.67;;;;;;;27.20;39.53;95820.06;5044005;28;20029;-70
2021/11/06 08:15:47;;;;;;;6.72;3.72;;;;;;;27.24;39.37;95826.72;5043947;28;20094;-70
2021/11/06 08:18:13;;;;;;;6.82;3.50;;;;;;;27.25;39.29;95828.97;5026552;28;20051;-70
2021/11/06 08:20:38;;;;;;;6.63;3.63;;;;;;;27.28;39.15;95821.72;5043979;28;20032;-69
2021/11/06 08:23:04;;;;;;;6.03;3.80;;;;;;;27.32;39.49;95827.63;5043677;28;20032;-69
2021/11/06 08:25:29;;;;;;;7.43;3.50;;;;;;;27.36;39.10;95828.09;5010014;28;20418;-69
2021/11/06 08:27:55;;;;;;;6.47;3.72;;;;;;;27.32;39.20;95827.63;5026211;28;20044;-68
2021/11/06 08:30:22;;;;;;;5.40;3.25;;;;;;;27.33;39.21;95829.88;5044131;28;20305;-68
2021/11/06 08:32:48;;;;;;;5.65;3.42;;;;;;;27.35;39.07;95824.63;5025992;28;20028;-68
2021/11/06 08:35:13;;;;;;;5.70;3.75;;;;;;;27.35;39.58;95837.56;5043575;28;20031;-64
2021/11/06 08:37:39;;;;;;;7.38;3.95;;;;;;;27.44;39.18;95834.47;5043854;28;21416;-65
2021/11/06 08:40:05;;;;;;;6.38;3.63;;;;;;;27.47;39.19;95833.44;5043473;28;20039;-66
2021/11/06 08:42:31;;;;;;;6.05;3.67;;;;;;;27.45;39.79;95830.50;5044043;28;20483;-66
2021/11/06 08:44:57;;;;;;;6.53;3.70;;;;;;;27.50;39.39;95826.97;5043557;28;20021;-65
2021/11/06 08:47:23;;;;;;;6.32;3.72;;;;;;;27.60;39.31;95826.09;5043517;28;20051;-65
2021/11/06 08:49:49;;;;;;;6.43;3.75;;;;;;;27.68;39.31;95829.00;5045603;28;20036;-66
2021/11/06 08:52:18;;;;;;;6.82;3.80;;;;;;;27.66;39.29;95823.28;5030385;28;20297;-65
2021/11/06 08:54:45;;;;;;;5.47;3.42;;;;;;;27.63;39.28;95830.53;5047966;28;20104;-66
2021/11/06 08:57:10;;;;;;;5.82;3.70;;;;;;;27.71;39.06;95831.44;5050711;28;20063;-65
2021/11/06 08:59:36;;;;;;;5.50;3.50;;;;;;;27.72;38.86;95843.91;5058787;28;20402;-66
2021/11/06 09:02:01;;;;;;;6.28;3.50;;;;;;;27.74;38.85;95835.88;5059583;28;20036;-66
2021/11/06 09:04:26;;;;;;;5.63;3.30;;;;;;;27.74;39.39;95847.63;5055844;28;20045;-65
2021/11/06 09:06:52;;;;;;;5.85;3.55;;;;;;;27.78;39.30;95850.78;5047615;28;20021;-66
2021/11/06 09:09:18;;;;;;;5.85;3.42;;;;;;;27.83;39.10;95849.25;5047458;28;20032;-67
2021/11/06 09:11:44;;;;;;;7.40;4.05;;;;;;;27.83;38.70;95844.50;5047289;28;20040;-67
2021/11/06 09:14:10;;;;;;;6.60;3.60;;;;;;;27.87;38.64;95850.44;5047569;28;20111;-71
2021/11/06 09:16:36;;;;;;;5.68;3.72;;;;;;;27.91;38.75;95850.88;5047080;28;20127;-70
2021/11/06 09:19:02;;;;;;;6.03;3.50;;;;;;;27.84;38.84;95851.47;5047473;28;20078;-70
2021/11/06 09:21:29;;;;;;;7.40;3.90;;;;;;;27.90;38.57;95860.38;5045639;28;20025;-70
2021/11/06 09:24:00;;;;;;;5.47;3.00;;;;;;;27.94;38.71;95855.34;5046012;28;20047;-66
2021/11/06 09:26:26;;;;;;;6.45;3.40;;;;;;;27.99;38.64;95857.25;5047548;28;20048;-65
2021/11/06 09:28:51;;;;;;;6.07;3.25;;;;;;;27.98;38.46;95850.31;5029771;28;20028;-64
2021/11/06 09:31:17;;;;;;;5.60;3.60;;;;;;;28.01;38.77;95846.53;5047375;28;20028;-64
2021/11/06 09:33:43;;;;;;;5.90;3.67;;;;;;;28.00;38.79;95845.03;5029742;28;20067;-65
2021/11/06 09:36:09;;;;;;;7.15;3.95;;;;;;;28.01;38.53;95840.25;5047388;28;20028;-65
2021/11/06 09:38:34;;;;;;;6.80;3.85;;;;;;;27.87;38.43;95842.19;5029656;28;20040;-65
2021/11/06 09:41:04;;;;;;;7.68;3.60;;;;;;;27.98;38.37;95828.34;5047512;28;20047;-65
2021/11/06 09:43:30;;;;;;;8.20;3.83;;;;;;;27.96;38.43;95836.34;5047233;28;20517;-64
2021/11/06 09:45:57;;;;;;;9.18;3.47;;;;;;;28.00;38.51;95830.56;5029167;28;20024;-64
2021/11/06 09:48:23;;;;;;;6.72;3.70;;;;;;;27.99;38.15;95818.09;5045433;28;20032;-67
2021/11/06 09:50:48;;;;;;;6.22;3.40;;;;;;;28.01;39.04;95821.81;5046535;28;20402;-68
2021/11/06 09:53:14;;;;;;;6.70;3.25;;;;;;;27.96;39.03;95825.34;5028359;28;20228;-69
2021/11/06 09:55:39;;;;;;;5.85;3.67;;;;;;;27.93;39.06;95828.41;5012155;28;20013;-69
2021/11/06 09:58:05;;;;;;;6.55;3.58;;;;;;;27.99;38.94;95832.56;5028593;28;20028;-69
2021/11/06 10:00:30;;;;;;;6.22;3.60;;;;;;;27.99;39.02;95818.81;5028276;28;20032;-69
2021/11/06 10:02:57;;;;;;;6.70;3.63;;;;;;;28.02;39.00;95817.78;5044920;28;20060;-62
2021/11/06 10:05:53;;;;;;;6.53;3.58;;;;;;;28.11;38.74;95817.44;5028448;28;20395;-65
2021/11/06 10:08:35;;;;;;;6.53;3.65;;;;;;;28.10;38.70;95818.72;5046076;28;20100;-64
2021/11/06 10:11:30;;;;;;;6.00;3.20;;;;;;;28.06;38.37;95814.75;5045851;28;20059;-68
2021/11/06 10:13:57;;;;;;;5.47;3.13;;;;;;;28.03;38.55;95813.78;5023299;28;20128;-68
2021/11/06 10:16:29;;;;;;;5.68;3.35;;;;;;;28.05;38.53;95811.25;5045568;28;20511;-67
2021/11/06 10:19:30;;;;;;;7.00;3.63;;;;;;;28.05;38.39;95805.03;5046574;28;20040;-67
2021/11/06 10:22:13;;;;;;;5.78;3.35;;;;;;;28.08;38.73;95803.97;5043901;28;20047;-65
2021/11/06 10:24:45;;;;;;;5.32;3.20;;;;;;;28.00;38.82;95798.34;5046254;28;20033;-64
2021/11/06 10:27:21;;;;;;;5.10;3.33;;;;;;;28.02;38.80;95801.31;5046453;28;20033;-64
2021/11/06 10:30:13;;;;;;;5.00;3.70;;;;;;;28.07;38.23;95797.00;5046815;28;20029;-64
2021/11/06 10:32:39;;;;;;;6.70;3.72;;;;;;;28.03;38.89;95789.06;5041271;28;20040;-65
2021/11/06 10:35:16;;;;;;;5.32;3.20;;;;;;;28.06;38.57;95790.75;5046059;28;20025;-64
2021/11/06 10:37:42;;;;;;;6.43;3.50;;;;;;;28.11;38.40;95798.19;5046068;28;20029;-64
2021/11/06 10:40:09;;;;;;;5.95;2.97;;;;;;;28.11;38.68;95792.72;5046081;28;20549;-65
2021/11/06 10:42:36;;;;;;;5.40;3.28;;;;;;;28.21;38.09;95802.06;5045378;28;20485;-68
2021/11/06 10:45:11;;;;;;;5.53;3.45;;;;;;;28.20;38.06;95803.31;5045425;28;20028;-66
2021/11/06 10:47:56;;;;;;;5.97;3.30;;;;;;;28.14;38.48;95807.41;5045447;28;20039;-68
2021/11/06 10:50:42;;;;;;;5.70;3.05;;;;;;;28.07;38.53;95797.75;5045488;28;20483;-68
2021/11/06 10:53:08;;;;;;;7.60;3.30;;;;;;;28.07;38.74;95797.75;5045118;28;20033;-68
2021/11/06 10:55:34;;;;;;;5.60;3.30;;;;;;;28.10;38.26;95802.22;5027441;28;20024;-67
2021/11/06 10:58:19;;;;;;;5.50;3.08;;;;;;;28.11;38.21;95797.47;5027214;28;20036;-67
2021/11/06 11:00:55;;;;;;;6.90;3.55;;;;;;;28.18;38.09;95797.59;5044986;28;20033;-67
2021/11/06 11:03:31;;;;;;;6.20;3.13;;;;;;;28.24;38.46;95804.50;5045057;28;20067;-69
2021/11/06 11:05:57;;;;;;;5.70;3.40;;;;;;;28.27;37.88;95802.72;5045224;28;20032;-70
2021/11/06 11:08:22;;;;;;;5.45;3.42;;;;;;;28.27;38.55;95794.47;5045240;28;20059;-67
2021/11/06 11:10:48;;;;;;;5.63;3.55;;;;;;;28.32;38.46;95793.63;5044999;28;20021;-67
2021/11/06 11:13:20;;;;;;;5.78;3.30;;;;;;;28.36;37.88;95791.34;5026730;28;20514;-65
2021/11/06 11:15:48;;;;;;;6.15;3.50;;;;;;;28.39;37.58;95787.53;5045036;28;20048;-67
2021/11/06 11:18:32;;;;;;;6.13;3.22;;;;;;;28.45;38.01;95788.19;5044672;28;20065;-70
2021/11/06 11:21:31;;;;;;;5.88;3.45;;;;;;;28.52;38.07;95793.06;5044707;28;20462;-69
2021/11/06 11:23:57;;;;;;;7.05;3.45;;;;;;;28.48;37.98;95781.66;5039729;28;20462;-70
2021/11/06 11:26:31;;;;;;;5.60;3.20;;;;;;;28.45;38.14;95782.69;5044275;28;20620;-70
2021/11/06 11:28:57;;;;;;;5.63;3.42;;;;;;;28.41;38.21;95782.25;5024814;28;20927;-69
2021/11/06 11:31:23;;;;;;;6.05;3.38;;;;;;;28.48;38.21;95770.66;5044410;28;20024;-69
2021/11/06 11:33:49;;;;;;;4.72;3.22;;;;;;;28.40;38.09;95770.53;5023792;28;20032;-69